Time;durP1;ratioP1;P1;durP2;ratioP2;P2;SDS_P1;SDS_P2;PMS_P1;PMS_P2;Temp;Humidity;BMP_temperature;BMP_pressure;BME280_temperature;BME280_humidity;BME280_pressure;Samples;Min_cycle;Max_cycle;Signal;HPM_P1;HPM_P2
2021/11/13 00:00:57;;;;;;;0.43;0.43;;;;;;;4.04;100.00;100341.41;5019755;28;20453;-49
2021/11/13 00:03:24;;;;;;;0.20;0.10;;;;;;;4.12;100.00;100328.25;5031608;28;20487;-49
2021/11/13 00:05:51;;;;;;;0.20;0.10;;;;;;;4.12;100.00;100320.38;5019907;28;20502;-48
2021/11/13 00:08:18;;;;;;;0.20;0.10;;;;;;;4.15;100.00;100315.09;5025094;28;20499;-49
2021/11/13 00:10:45;;;;;;;0.20;0.10;;;;;;;4.10;100.00;100309.81;5026029;28;20998;-48
2021/11/13 00:13:12;;;;;;;0.20;0.10;;;;;;;4.01;100.00;100309.00;5020342;28;20447;-48
2021/11/13 00:15:39;;;;;;;0.30;0.30;;;;;;;3.97;100.00;100323.88;5019440;28;20476;-48
2021/11/13 00:18:07;;;;;;;0.20;0.20;;;;;;;4.03;100.00;100313.38;5025389;28;20463;-48
2021/11/13 00:20:33;;;;;;;0.20;0.10;;;;;;;4.12;100.00;100299.31;5015278;28;20457;-48
2021/11/13 00:23:01;;;;;;;0.27;0.20;;;;;;;3.98;100.00;100302.00;5024850;28;20542;-48
2021/11/13 00:25:28;;;;;;;0.20;0.20;;;;;;;4.09;100.00;100299.31;5027539;28;20873;-48
2021/11/13 00:27:55;;;;;;;0.20;0.10;;;;;;;4.08;100.00;100300.19;5032344;28;20940;-49
2021/11/13 00:30:22;;;;;;;0.20;0.10;;;;;;;4.18;100.00;100291.41;5016567;28;20495;-48
2021/11/13 00:32:49;;;;;;;2.43;2.33;;;;;;;3.98;100.00;100286.22;5022324;28;20522;-48
2021/11/13 00:35:16;;;;;;;0.20;0.10;;;;;;;3.98;100.00;100285.34;5019122;28;20456;-48
2021/11/13 00:37:43;;;;;;;0.20;0.20;;;;;;;4.07;100.00;100283.53;5005369;28;20835;-48
2021/11/13 00:40:12;;;;;;;0.20;0.10;;;;;;;4.07;100.00;100285.28;5018762;28;20524;-48
2021/11/13 00:42:39;;;;;;;0.30;0.20;;;;;;;4.03;100.00;100289.69;5015646;28;20451;-48
2021/11/13 00:45:07;;;;;;;0.20;0.10;;;;;;;4.10;100.00;100287.91;5019231;28;20491;-48
2021/11/13 00:47:34;;;;;;;0.20;0.10;;;;;;;4.15;100.00;100280.91;5025555;28;20509;-48
2021/11/13 00:50:01;;;;;;;1.40;1.40;;;;;;;4.15;100.00;100266.00;5019411;28;20518;-49
2021/11/13 00:52:28;;;;;;;0.30;0.20;;;;;;;4.14;100.00;100272.13;5020730;28;20453;-48
2021/11/13 00:54:54;;;;;;;0.30;0.30;;;;;;;3.94;100.00;100280.94;5025533;28;20517;-48
2021/11/13 00:57:21;;;;;;;0.23;0.20;;;;;;;4.06;100.00;100279.16;5024566;28;20525;-48
2021/11/13 00:59:48;;;;;;;0.20;0.10;;;;;;;4.13;100.00;100267.75;5019360;28;20522;-48
2021/11/13 01:02:14;;;;;;;0.20;0.10;;;;;;;3.97;100.00;100268.66;5022713;28;20448;-48
2021/11/13 01:04:41;;;;;;;1.90;0.87;;;;;;;4.02;100.00;100279.19;5017843;28;20523;-48
2021/11/13 01:07:11;;;;;;;0.20;0.10;;;;;;;4.08;100.00;100271.25;5020418;28;20459;-49
2021/11/13 01:09:38;;;;;;;0.30;0.10;;;;;;;3.97;100.00;100275.66;5025279;28;20496;-49
2021/11/13 01:12:05;;;;;;;0.40;0.40;;;;;;;3.96;100.00;100272.16;5019024;28;20480;-48
2021/11/13 01:14:39;;;;;;;0.20;0.10;;;;;;;3.95;100.00;100275.66;5025968;28;20511;-49
2021/11/13 01:17:12;;;;;;;6.03;1.50;;;;;;;3.77;100.00;100292.34;5025945;28;20446;-49
2021/11/13 01:19:41;;;;;;;0.20;0.10;;;;;;;3.74;100.00;100284.47;5021652;28;20490;-48
2021/11/13 01:22:08;;;;;;;0.20;0.10;;;;;;;3.72;100.00;100283.63;5021832;28;20511;-48
2021/11/13 01:24:34;;;;;;;0.20;0.10;;;;;;;3.76;100.00;100277.47;5026897;28;20550;-48
2021/11/13 01:27:01;;;;;;;1.03;1.03;;;;;;;3.72;100.00;100281.00;5031819;28;20448;-48
2021/11/13 01:29:28;;;;;;;2.10;0.97;;;;;;;3.83;100.00;100270.44;5027361;28;20472;-48
2021/11/13 01:31:55;;;;;;;0.20;0.10;;;;;;;3.90;100.00;100261.66;5020589;28;20514;-49
2021/11/13 01:34:21;;;;;;;0.27;0.17;;;;;;;3.92;100.00;100261.66;5026822;28;20448;-48
2021/11/13 01:36:48;;;;;;;0.20;0.10;;;;;;;3.92;100.00;100257.28;5028695;28;20986;-49
2021/11/13 01:39:17;;;;;;;0.20;0.10;;;;;;;4.06;100.00;100257.25;5017757;28;20479;-48
2021/11/13 01:41:43;;;;;;;2.50;2.00;;;;;;;4.02;100.00;100256.38;5028921;28;20486;-49
2021/11/13 01:44:10;;;;;;;0.20;0.10;;;;;;;3.96;100.00;100245.88;5025100;28;20522;-48
2021/11/13 01:46:38;;;;;;;0.30;0.20;;;;;;;3.98;100.00;100244.13;5032810;28;20484;-48
2021/11/13 01:49:06;;;;;;;0.20;0.13;;;;;;;4.04;100.00;100244.09;5017382;28;20989;-49
2021/11/13 01:51:34;;;;;;;0.97;0.97;;;;;;;3.97;100.00;100249.38;5028770;28;20456;-49
2021/11/13 01:54:08;;;;;;;0.20;0.10;;;;;;;3.87;100.00;100266.94;5025522;28;20475;-48
2021/11/13 01:56:39;;;;;;;0.20;0.10;;;;;;;3.95;100.00;100259.03;5021832;28;20482;-49
2021/11/13 01:59:07;;;;;;;0.20;0.10;;;;;;;4.02;100.00;100264.28;5023503;28;20473;-49
2021/11/13 02:01:35;;;;;;;0.20;0.20;;;;;;;3.94;100.00;100254.66;5029845;28;20894;-48
2021/11/13 02:04:03;;;;;;;0.20;0.10;;;;;;;3.88;100.00;100258.19;5023858;28;20492;-48
2021/11/13 02:06:30;;;;;;;0.20;0.20;;;;;;;3.89;100.00;100264.31;5027961;28;20457;-48
2021/11/13 02:08:57;;;;;;;0.20;0.10;;;;;;;3.75;100.00;100259.06;5027255;28;20507;-48
2021/11/13 02:11:27;;;;;;;0.23;0.17;;;;;;;3.84;100.00;100264.31;5021260;28;20451;-48
2021/11/13 02:13:56;;;;;;;0.20;0.10;;;;;;;3.91;100.00;100262.53;5021350;28;20507;-48
2021/11/13 02:16:22;;;;;;;0.20;0.10;;;;;;;3.98;100.00;100266.94;5027245;28;20500;-49
2021/11/13 02:18:49;;;;;;;0.20;0.10;;;;;;;3.95;100.00;100253.75;5022388;28;20525;-48
2021/11/13 02:21:16;;;;;;;0.20;0.10;;;;;;;4.05;100.00;100252.88;5020005;28;20456;-48
2021/11/13 02:23:44;;;;;;;0.20;0.10;;;;;;;4.02;100.00;100259.03;5027768;28;20480;-48
2021/11/13 02:26:12;;;;;;;0.30;0.20;;;;;;;3.85;100.00;100266.94;5023270;28;20447;-48
2021/11/13 02:28:39;;;;;;;0.20;0.13;;;;;;;3.80;100.00;100266.06;5030296;28;20475;-48
2021/11/13 02:31:09;;;;;;;0.20;0.10;;;;;;;3.82;100.00;100256.41;5017912;28;20511;-48
2021/11/13 02:33:37;;;;;;;0.20;0.10;;;;;;;3.77;100.00;100252.94;5028052;28;20448;-48
2021/11/13 02:36:06;;;;;;;0.20;0.20;;;;;;;3.76;100.00;100227.53;5023832;28;20483;-48
2021/11/13 02:38:36;;;;;;;0.20;0.20;;;;;;;3.77;100.00;100242.41;5020773;28;20471;-49
2021/11/13 02:41:06;;;;;;;0.20;0.20;;;;;;;3.82;100.00;100245.03;5024267;28;20484;-48
2021/11/13 02:43:34;;;;;;;0.30;0.20;;;;;;;3.86;100.00;100252.06;5028063;28;20483;-48
2021/11/13 02:46:03;;;;;;;0.20;0.20;;;;;;;3.93;100.00;100242.38;5017309;28;20453;-49
2021/11/13 02:48:35;;;;;;;0.20;0.20;;;;;;;3.75;100.00;100243.31;5028283;28;20477;-48
2021/11/13 02:51:02;;;;;;;0.20;0.10;;;;;;;3.85;100.00;100232.78;5026918;28;20929;-48
2021/11/13 02:53:29;;;;;;;0.20;0.10;;;;;;;3.93;100.00;100231.88;5021037;28;20460;-49
2021/11/13 02:55:59;;;;;;;0.20;0.10;;;;;;;3.82;100.00;100227.50;5021930;28;20456;-48
2021/11/13 02:58:26;;;;;;;0.20;0.10;;;;;;;3.86;100.00;100245.03;5026914;28;20468;-48
2021/11/13 03:00:56;;;;;;;0.20;0.10;;;;;;;3.82;100.00;100238.00;5023539;28;20464;-48
2021/11/13 03:03:23;;;;;;;0.87;0.77;;;;;;;3.87;100.00;100230.13;5007638;28;20916;-48
2021/11/13 03:05:55;;;;;;;0.33;0.33;;;;;;;3.97;100.00;100238.84;5019968;28;20942;-48
2021/11/13 03:08:28;;;;;;;0.20;0.20;;;;;;;3.95;100.00;100224.84;5008548;28;20534;-48
2021/11/13 03:10:57;;;;;;;0.20;0.10;;;;;;;3.90;100.00;100224.00;5020081;28;20535;-48
2021/11/13 03:13:25;;;;;;;0.20;0.20;;;;;;;3.95;100.00;100230.97;5024457;28;20954;-48
2021/11/13 03:15:53;;;;;;;0.20;0.10;;;;;;;3.90;100.00;100221.34;5002686;28;20452;-48
2021/11/13 03:18:20;;;;;;;0.20;0.10;;;;;;;3.93;100.00;100224.84;5024025;28;20476;-48
2021/11/13 03:20:47;;;;;;;0.20;0.10;;;;;;;3.90;100.00;100231.88;5026607;28;20571;-49
2021/11/13 03:23:16;;;;;;;0.20;0.10;;;;;;;3.94;100.00;100221.34;5023188;28;20451;-48
2021/11/13 03:25:53;;;;;;;0.20;0.10;;;;;;;3.87;100.00;100214.34;5020466;28;20489;-48
2021/11/13 03:28:23;;;;;;;0.20;0.10;;;;;;;3.91;100.00;100221.34;5034335;28;20510;-49
2021/11/13 03:30:50;;;;;;;0.20;0.10;;;;;;;3.85;100.00;100224.00;5018145;28;20457;-48
2021/11/13 03:33:17;;;;;;;1.17;1.17;;;;;;;3.93;100.00;100226.59;5028609;28;20463;-49
2021/11/13 03:35:44;;;;;;;0.20;0.10;;;;;;;3.87;100.00;100227.50;5021842;28;20868;-48
2021/11/13 03:38:14;;;;;;;0.20;0.10;;;;;;;3.94;100.00;100213.44;5020488;28;20502;-48
2021/11/13 03:40:44;;;;;;;0.30;0.20;;;;;;;3.92;100.00;100203.81;5026002;28;20933;-48
2021/11/13 03:43:12;;;;;;;0.60;0.60;;;;;;;3.78;100.00;100174.94;5017115;28;20487;-48
2021/11/13 03:45:41;;;;;;;0.20;0.10;;;;;;;3.81;100.00;100185.44;5024787;28;20523;-49
2021/11/13 03:48:08;;;;;;;0.20;0.10;;;;;;;3.71;100.00;100200.38;5026109;28;20491;-48
2021/11/13 03:50:35;;;;;;;0.20;0.10;;;;;;;3.78;100.00;100206.50;5021705;28;20505;-48
2021/11/13 03:53:04;;;;;;;0.27;0.13;;;;;;;3.88;100.00;100202.09;5016144;28;20942;-48
2021/11/13 03:55:33;;;;;;;0.20;0.20;;;;;;;3.88;100.00;100192.44;5023974;28;20448;-48
2021/11/13 03:58:00;;;;;;;0.20;0.17;;;;;;;3.86;100.00;100183.69;5009130;28;20904;-49
2021/11/13 04:00:28;;;;;;;0.20;0.10;;;;;;;3.66;100.00;100172.34;5023292;28;20929;-49
2021/11/13 04:02:55;;;;;;;0.20;0.20;;;;;;;3.65;100.00;100157.47;5023497;28;20448;-48
2021/11/13 04:05:22;;;;;;;0.20;0.10;;;;;;;3.40;100.00;100140.88;5023631;28;20491;-49
2021/11/13 04:07:50;;;;;;;0.20;0.10;;;;;;;2.90;100.00;100141.81;5018919;28;20467;-48
2021/11/13 04:10:17;;;;;;;0.20;0.10;;;;;;;3.07;100.00;100147.94;5039302;23;20491;-51
2021/11/13 04:12:44;;;;;;;0.20;0.10;;;;;;;3.37;100.00;100182.91;5018977;28;20452;-51
2021/11/13 04:15:13;;;;;;;0.20;0.10;;;;;;;3.55;100.00;100177.63;5021549;28;20440;-50
2021/11/13 04:17:40;;;;;;;0.20;0.10;;;;;;;3.66;100.00;100180.22;5025662;28;20871;-51
2021/11/13 04:20:08;;;;;;;0.20;0.20;;;;;;;3.74;100.00;100173.22;5021115;28;20476;-51
2021/11/13 04:22:35;;;;;;;0.30;0.20;;;;;;;3.72;100.00;100181.09;5025563;28;20815;-51
2021/11/13 04:25:03;;;;;;;0.20;0.20;;;;;;;3.79;100.00;100180.19;5023469;28;20878;-51
2021/11/13 04:27:30;;;;;;;0.30;0.20;;;;;;;3.84;100.00;100175.81;5045061;28;20448;-51
2021/11/13 04:29:56;;;;;;;0.30;0.10;;;;;;;3.69;100.00;100164.44;5028508;28;20494;-51
2021/11/13 04:32:28;;;;;;;1.27;1.17;;;;;;;3.76;100.00;100164.44;5028293;28;20478;-51
2021/11/13 04:37:23;;;;;;;0.20;0.10;;;;;;;3.79;100.00;100159.16;5025076;28;20511;-51
2021/11/13 04:39:49;;;;;;;0.93;0.93;;;;;;;3.66;100.00;100149.56;5022649;28;20831;-51
2021/11/13 04:42:18;;;;;;;0.30;0.20;;;;;;;3.71;100.00;100152.19;5019505;28;20483;-52
2021/11/13 04:44:46;;;;;;;0.20;0.10;;;;;;;3.36;100.00;100157.53;5025622;28;20539;-51
2021/11/13 04:47:13;;;;;;;0.30;0.20;;;;;;;3.43;100.00;100154.91;5018671;28;20453;-51
2021/11/13 04:49:40;;;;;;;0.20;0.10;;;;;;;3.46;100.00;100161.91;5025352;28;20920;-51
2021/11/13 04:52:08;;;;;;;0.20;0.10;;;;;;;3.59;100.00;100147.84;5020190;28;20457;-51
2021/11/13 04:54:35;;;;;;;0.20;0.10;;;;;;;3.46;100.00;100148.75;5018554;28;20515;-51
2021/11/13 04:57:03;;;;;;;0.20;0.10;;;;;;;3.61;100.00;100137.34;5026973;28;21022;-51
2021/11/13 04:59:30;;;;;;;0.20;0.10;;;;;;;3.62;100.00;100132.06;5029032;28;20475;-51
2021/11/13 05:01:58;;;;;;;0.30;0.20;;;;;;;3.69;100.00;100139.03;5027749;28;20447;-51
2021/11/13 05:04:25;;;;;;;0.20;0.10;;;;;;;3.72;100.00;100136.41;5021961;28;20531;-51
2021/11/13 05:06:52;;;;;;;0.20;0.10;;;;;;;3.74;100.00;100145.16;5025841;28;20807;-51
2021/11/13 05:09:18;;;;;;;0.20;0.10;;;;;;;3.68;100.00;100157.44;5028104;28;20875;-50
2021/11/13 05:11:45;;;;;;;0.30;0.20;;;;;;;3.66;100.00;100154.81;5025516;28;20443;-51
2021/11/13 05:14:12;;;;;;;0.20;0.10;;;;;;;3.65;100.00;100155.69;5022200;28;20451;-51
2021/11/13 05:16:38;;;;;;;0.30;0.20;;;;;;;3.63;100.00;100149.59;5033016;28;20517;-51
2021/11/13 05:19:08;;;;;;;0.20;0.10;;;;;;;3.63;100.00;100143.44;5021814;28;20471;-51
2021/11/13 05:21:36;;;;;;;0.40;0.40;;;;;;;3.67;100.00;100139.94;5024362;28;20448;-51
2021/11/13 05:24:03;;;;;;;0.20;0.10;;;;;;;3.68;100.00;100160.06;5028361;28;20506;-51
2021/11/13 05:26:30;;;;;;;0.20;0.10;;;;;;;3.74;100.00;100158.31;5029807;28;20448;-51
2021/11/13 05:29:00;;;;;;;0.20;0.10;;;;;;;3.79;100.00;100153.91;5021309;28;20447;-51
2021/11/13 05:31:27;;;;;;;0.20;0.13;;;;;;;3.82;100.00;100153.88;5032062;28;20522;-50
2021/11/13 05:33:53;;;;;;;0.20;0.20;;;;;;;3.75;100.00;100157.44;5032253;28;20522;-52
2021/11/13 05:36:20;;;;;;;1.73;1.73;;;;;;;3.81;100.00;100153.91;5023268;28;20503;-51
2021/11/13 05:38:47;;;;;;;0.20;0.10;;;;;;;3.71;100.00;100141.69;5027938;28;20452;-50
2021/11/13 05:41:13;;;;;;;0.20;0.10;;;;;;;3.64;100.00;100138.19;5026606;28;20506;-51
2021/11/13 05:43:40;;;;;;;0.50;0.50;;;;;;;3.61;100.00;100139.97;5021406;28;20455;-51
2021/11/13 05:46:07;;;;;;;1.17;1.17;;;;;;;3.81;100.00;100139.00;5022683;28;20898;-51
2021/11/13 05:48:33;;;;;;;0.20;0.10;;;;;;;3.83;100.00;100134.59;5028002;28;20468;-51
2021/11/13 05:51:00;;;;;;;0.20;0.10;;;;;;;3.85;100.00;100124.97;5026270;28;20471;-50
2021/11/13 05:53:27;;;;;;;0.20;0.20;;;;;;;3.80;100.00;100134.63;5021107;28;20487;-51
2021/11/13 05:55:53;;;;;;;0.20;0.10;;;;;;;3.82;100.00;100126.72;5022146;28;20942;-50
2021/11/13 05:58:20;;;;;;;0.20;0.10;;;;;;;3.90;100.00;100126.72;5027942;28;20999;-51
2021/11/13 06:00:47;;;;;;;0.20;0.10;;;;;;;3.96;100.00;100127.53;5026284;28;20945;-51
2021/11/13 06:03:14;;;;;;;0.20;0.10;;;;;;;3.98;100.00;100138.09;5028698;28;20452;-51
2021/11/13 06:05:42;;;;;;;0.20;0.20;;;;;;;3.93;100.00;100137.22;5026394;28;20988;-51
2021/11/13 06:08:10;;;;;;;0.20;0.20;;;;;;;3.94;100.00;100139.81;5021017;28;20458;-51
2021/11/13 06:10:37;;;;;;;0.20;0.10;;;;;;;3.99;100.00;100142.47;5023008;28;20902;-51
2021/11/13 06:13:04;;;;;;;0.20;0.20;;;;;;;4.00;100.00;100141.56;5021224;28;20860;-51
2021/11/13 06:15:30;;;;;;;0.20;0.10;;;;;;;3.96;100.00;100137.19;5020816;28;21011;-51
2021/11/13 06:17:57;;;;;;;0.20;0.10;;;;;;;3.98;100.00;100135.44;5026728;28;20457;-51
2021/11/13 06:20:24;;;;;;;0.20;0.10;;;;;;;4.06;100.00;100137.16;5027758;28;20471;-50
2021/11/13 06:22:51;;;;;;;0.30;0.30;;;;;;;4.00;100.00;100152.09;5017994;28;20506;-48
2021/11/13 06:25:18;;;;;;;0.20;0.20;;;;;;;4.11;100.00;100150.25;5028529;28;20514;-48
2021/11/13 06:27:45;;;;;;;0.20;0.10;;;;;;;4.16;100.00;100149.38;5040789;28;20452;-52
2021/11/13 06:30:14;;;;;;;0.43;0.43;;;;;;;4.09;100.00;100144.13;5028187;28;20459;-49
2021/11/13 06:32:42;;;;;;;0.30;0.20;;;;;;;4.13;100.00;100156.41;5031860;28;20491;-49
2021/11/13 06:35:10;;;;;;;0.20;0.10;;;;;;;4.11;100.00;100156.44;5022183;28;20948;-49
2021/11/13 06:37:38;;;;;;;0.20;0.20;;;;;;;4.08;100.00;100160.81;5022456;28;20448;-49
2021/11/13 06:40:06;;;;;;;0.47;0.47;;;;;;;3.96;100.00;100168.75;5020051;28;20538;-49
2021/11/13 06:42:36;;;;;;;0.20;0.10;;;;;;;3.90;100.00;100174.91;5023430;28;20453;-49
2021/11/13 06:45:04;;;;;;;0.20;0.10;;;;;;;3.93;100.00;100174.00;5026338;28;20565;-48
2021/11/13 06:47:31;;;;;;;0.67;0.67;;;;;;;3.72;100.00;100172.34;5024138;28;20509;-48
2021/11/13 06:49:58;;;;;;;0.20;0.10;;;;;;;3.89;100.00;100167.91;5020283;28;20475;-49
2021/11/13 06:52:25;;;;;;;0.20;0.10;;;;;;;3.66;100.00;100175.84;5023136;28;20484;-49
2021/11/13 06:54:51;;;;;;;0.20;0.20;;;;;;;3.66;100.00;100175.84;5029123;28;20448;-49
2021/11/13 06:57:21;;;;;;;0.20;0.20;;;;;;;3.91;100.00;100181.03;5022152;28;20453;-49
2021/11/13 06:59:48;;;;;;;1.27;1.27;;;;;;;3.98;100.00;100177.53;5027029;28;20473;-49
2021/11/13 07:02:15;;;;;;;0.20;0.10;;;;;;;4.01;100.00;100174.88;5027928;28;20451;-49
2021/11/13 07:04:42;;;;;;;0.20;0.10;;;;;;;4.09;100.00;100186.22;5019353;28;20869;-49
2021/11/13 07:07:10;;;;;;;0.73;0.70;;;;;;;4.27;100.00;100178.28;5023539;28;20542;-49
2021/11/13 07:09:37;;;;;;;0.20;0.10;;;;;;;4.33;100.00;100183.47;5022957;28;21011;-49
2021/11/13 07:12:05;;;;;;;1.40;0.80;;;;;;;4.39;100.00;100183.47;5027171;28;20459;-51
2021/11/13 07:14:32;;;;;;;1.43;0.87;;;;;;;4.39;100.00;100177.34;5020724;28;20451;-48
2021/11/13 07:16:58;;;;;;;0.20;0.10;;;;;;;4.49;100.00;100184.28;5018629;28;20464;-48
2021/11/13 07:19:25;;;;;;;0.20;0.20;;;;;;;4.52;100.00;100180.75;5026000;28;20468;-49
2021/11/13 07:21:52;;;;;;;0.20;0.10;;;;;;;4.35;100.00;100186.09;5018346;28;20511;-49
2021/11/13 07:24:19;;;;;;;0.20;0.10;;;;;;;4.43;100.00;100179.94;5026337;28;20448;-48
2021/11/13 07:26:51;;;;;;;0.20;0.10;;;;;;;4.52;100.00;100186.00;5040414;28;20866;-48
2021/11/13 07:29:24;;;;;;;0.20;0.10;;;;;;;4.53;100.00;100186.03;5028987;28;20875;-48
2021/11/13 07:31:51;;;;;;;0.20;0.20;;;;;;;4.39;100.00;100188.72;5027772;28;20521;-49
2021/11/13 07:34:18;;;;;;;0.20;0.17;;;;;;;4.50;100.00;100187.78;5021395;28;20937;-49
2021/11/13 07:36:45;;;;;;;0.20;0.10;;;;;;;4.31;100.00;100187.88;5025867;28;20447;-49
2021/11/13 07:39:11;;;;;;;0.20;0.10;;;;;;;4.41;100.00;100192.22;5020907;28;20472;-49
2021/11/13 07:41:38;;;;;;;0.67;0.67;;;;;;;4.54;100.00;100190.41;5027530;28;20494;-49
2021/11/13 07:44:05;;;;;;;0.20;0.20;;;;;;;4.59;100.00;100187.72;5024550;28;20945;-49
2021/11/13 07:46:32;;;;;;;0.20;0.10;;;;;;;4.51;100.00;100186.88;5019147;28;20492;-48
2021/11/13 07:48:58;;;;;;;0.20;0.20;;;;;;;4.52;100.00;100186.00;5023652;28;20448;-49
2021/11/13 07:51:25;;;;;;;0.30;0.20;;;;;;;4.50;100.00;100180.75;5021077;28;20511;-48
2021/11/13 07:53:52;;;;;;;0.20;0.20;;;;;;;4.45;100.00;100180.78;5029759;28;20475;-48
2021/11/13 07:56:18;;;;;;;0.20;0.20;;;;;;;4.37;100.00;100185.22;5022276;28;20535;-49
2021/11/13 07:58:45;;;;;;;0.20;0.10;;;;;;;4.46;100.00;100182.53;5023634;28;20491;-48
2021/11/13 08:01:12;;;;;;;5.57;0.93;;;;;;;4.60;100.00;100168.41;5022859;28;20452;-48
2021/11/13 08:03:38;;;;;;;0.20;0.10;;;;;;;4.64;100.00;100175.41;5045947;28;20481;-48
2021/11/13 08:06:05;;;;;;;0.30;0.20;;;;;;;4.77;100.00;100174.44;5025945;28;20902;-49
2021/11/13 08:08:32;;;;;;;0.20;0.20;;;;;;;4.64;100.00;100173.66;5029293;28;20452;-49
2021/11/13 08:11:00;;;;;;;5.83;1.43;;;;;;;4.79;100.00;100175.31;5018733;28;20526;-49
2021/11/13 08:13:27;;;;;;;0.30;0.20;;;;;;;4.65;100.00;100179.78;5027094;28;20517;-49
2021/11/13 08:15:54;;;;;;;0.20;0.10;;;;;;;4.76;100.00;100178.84;5017237;28;20453;-49
2021/11/13 08:18:21;;;;;;;0.20;0.20;;;;;;;4.70;100.00;100181.53;5019265;28;20465;-49
2021/11/13 08:20:48;;;;;;;0.20;0.10;;;;;;;4.73;100.00;100185.88;5029296;28;21023;-49
2021/11/13 08:23:14;;;;;;;2.20;2.00;;;;;;;4.85;100.00;100177.91;5028716;28;21021;-49
2021/11/13 08:25:43;;;;;;;0.20;0.10;;;;;;;4.95;100.00;100182.22;5024907;28;20491;-49
2021/11/13 08:28:10;;;;;;;0.20;0.20;;;;;;;4.70;100.00;100185.91;5029890;28;20455;-49
2021/11/13 08:30:43;;;;;;;0.20;0.10;;;;;;;4.49;100.00;100183.41;5022699;28;20463;-49
2021/11/13 08:33:09;;;;;;;0.20;0.20;;;;;;;4.46;100.00;100181.66;5023817;28;20453;-48
2021/11/13 08:35:38;;;;;;;0.20;0.20;;;;;;;4.48;100.00;100177.25;5031765;28;20480;-49
2021/11/13 08:38:05;;;;;;;0.20;0.20;;;;;;;4.52;100.00;100180.75;5023799;28;20488;-48
2021/11/13 08:40:32;;;;;;;0.20;0.10;;;;;;;4.53;100.00;100178.13;5031628;28;20472;-49
2021/11/13 08:43:00;;;;;;;1.03;1.03;;;;;;;4.74;100.00;100169.19;5021598;28;20461;-48
2021/11/13 08:45:27;;;;;;;0.20;0.10;;;;;;;4.59;100.00;100167.56;5033601;28;20483;-52
2021/11/13 08:47:53;;;;;;;0.20;0.10;;;;;;;4.61;100.00;100157.88;5023081;28;20519;-51
2021/11/13 08:50:24;;;;;;;0.20;0.10;;;;;;;4.69;100.00;100160.47;5034685;28;20479;-49
2021/11/13 08:52:53;;;;;;;0.20;0.20;;;;;;;4.81;100.00;100167.41;5030841;28;20451;-48
2021/11/13 08:55:22;;;;;;;0.20;0.10;;;;;;;5.19;100.00;100164.44;5023200;28;20451;-49
2021/11/13 08:57:49;;;;;;;0.20;0.10;;;;;;;5.59;100.00;100170.22;5022384;28;20448;-49
2021/11/13 09:00:22;;;;;;;0.30;0.20;;;;;;;5.40;100.00;100169.53;5027565;28;20518;-49
2021/11/13 09:02:49;;;;;;;0.50;0.50;;;;;;;5.50;100.00;100165.94;5032585;28;20513;-49
2021/11/13 09:05:16;;;;;;;0.20;0.20;;;;;;;5.45;100.00;100167.72;5024814;28;20491;-48
2021/11/13 09:07:43;;;;;;;0.20;0.10;;;;;;;5.38;100.00;100173.09;5021880;28;20456;-49
2021/11/13 09:10:10;;;;;;;0.20;0.10;;;;;;;5.34;100.00;100167.84;5025807;28;21024;-49
2021/11/13 09:12:37;;;;;;;0.20;0.10;;;;;;;5.36;100.00;100173.09;5028747;28;20525;-48
2021/11/13 09:15:11;;;;;;;0.20;0.10;;;;;;;5.37;100.00;100177.47;5024729;28;20452;-49
2021/11/13 09:17:38;;;;;;;0.23;0.17;;;;;;;5.27;100.00;100160.00;5022274;28;20447;-48
2021/11/13 09:20:06;;;;;;;0.50;0.50;;;;;;;5.28;100.00;100162.63;5024653;28;21005;-49
2021/11/13 09:22:32;;;;;;;0.20;0.20;;;;;;;5.28;100.00;100154.72;5028565;28;20498;-49
2021/11/13 09:24:59;;;;;;;0.20;0.20;;;;;;;5.36;100.00;100159.94;5026149;28;20459;-49
2021/11/13 09:27:26;;;;;;;0.47;0.47;;;;;;;5.44;100.00;100151.94;5048170;28;20479;-49
2021/11/13 09:29:53;;;;;;;0.20;0.10;;;;;;;5.77;100.00;100161.25;5023131;28;21013;-49
2021/11/13 09:32:19;;;;;;;0.20;0.10;;;;;;;5.81;100.00;100157.69;5033562;28;20494;-49
2021/11/13 09:34:46;;;;;;;0.30;0.20;;;;;;;5.83;100.00;100155.91;5022900;28;20510;-49
2021/11/13 09:37:13;;;;;;;0.20;0.20;;;;;;;5.77;100.00;100161.25;5028626;28;20471;-49
2021/11/13 09:39:39;;;;;;;0.20;0.20;;;;;;;5.80;100.00;100156.81;5026634;28;21044;-49
2021/11/13 09:42:07;;;;;;;0.20;0.20;;;;;;;6.13;100.00;100157.31;5020293;28;20456;-49
2021/11/13 09:44:34;;;;;;;0.30;0.30;;;;;;;6.27;100.00;100158.00;5022812;28;20453;-48
2021/11/13 09:47:00;;;;;;;0.30;0.20;;;;;;;6.08;100.00;100162.66;5027018;28;20492;-48
2021/11/13 09:49:29;;;;;;;0.20;0.20;;;;;;;6.39;100.00;100159.63;5027113;28;20475;-49
2021/11/13 09:51:56;;;;;;;0.20;0.20;;;;;;;6.18;100.00;100153.75;5021231;28;20458;-49
2021/11/13 09:54:24;;;;;;;0.20;0.10;;;;;;;6.22;100.00;100157.22;5021796;28;20445;-49
2021/11/13 09:56:51;;;;;;;0.50;0.50;;;;;;;6.35;100.00;100169.34;5027675;28;20499;-49
2021/11/13 09:59:18;;;;;;;0.40;0.40;;;;;;;6.41;100.00;100161.34;5027694;28;20495;-49
2021/11/13 10:01:45;;;;;;;0.63;0.63;;;;;;;6.49;100.00;100162.13;5025040;28;20451;-49
2021/11/13 10:04:12;;;;;;;0.30;0.20;;;;;;;6.28;100.00;100157.13;5021346;28;20476;-49
2021/11/13 10:06:39;;;;;;;0.20;0.20;;;;;;;6.12;100.00;100161.72;5021049;28;20495;-49
2021/11/13 10:09:09;;;;;;;0.30;0.10;;;;;;;6.02;100.00;100152.19;5020819;28;20480;-49
2021/11/13 10:11:43;;;;;;;0.20;0.10;;;;;;;5.98;100.00;100146.97;5026966;28;20449;-46
2021/11/13 10:14:10;;;;;;;0.20;0.20;;;;;;;5.96;100.00;100147.00;5027712;28;20936;-46
2021/11/13 10:16:49;;;;;;;0.20;0.20;;;;;;;5.97;100.00;100150.50;5022723;28;20518;-46
2021/11/13 10:19:18;;;;;;;0.20;0.20;;;;;;;5.94;100.00;100140.88;5020727;28;20470;-46
2021/11/13 10:21:53;;;;;;;0.60;0.60;;;;;;;6.11;100.00;100145.91;5023602;28;20453;-46
2021/11/13 10:24:23;;;;;;;0.47;0.43;;;;;;;6.07;100.00;100137.19;5027816;28;20445;-46
2021/11/13 10:26:56;;;;;;;0.80;0.73;;;;;;;5.98;100.00;100134.66;5041096;28;20482;-46
2021/11/13 10:29:26;;;;;;;0.20;0.20;;;;;;;5.93;100.00;100136.47;5021729;28;20554;-46
2021/11/13 10:31:59;;;;;;;0.20;0.20;;;;;;;6.00;100.00;100132.84;5030111;28;20517;-46
2021/11/13 10:34:47;;;;;;;0.30;0.20;;;;;;;6.14;100.00;100133.56;5024814;28;20468;-47
2021/11/13 10:37:25;;;;;;;0.20;0.10;;;;;;;6.37;100.00;100129.75;5027270;28;20459;-47
2021/11/13 10:39:59;;;;;;;0.20;0.20;;;;;;;6.24;100.00;100118.47;5027040;28;20502;-47
2021/11/13 10:42:25;;;;;;;0.30;0.20;;;;;;;6.05;100.00;100133.69;5021905;28;20502;-47
2021/11/13 10:44:53;;;;;;;0.83;0.83;;;;;;;6.24;100.00;100123.75;5019967;28;21028;-47
2021/11/13 10:47:34;;;;;;;0.40;0.40;;;;;;;6.16;100.00;100121.19;5024870;28;20892;-47
2021/11/13 10:50:20;;;;;;;0.20;0.20;;;;;;;6.00;100.00;100116.16;5026982;28;20464;-46
2021/11/13 10:52:57;;;;;;;0.30;0.10;;;;;;;6.16;100.00;100121.19;5026518;28;20880;-47
2021/11/13 10:55:25;;;;;;;0.20;0.17;;;;;;;6.13;100.00;100115.97;5021520;28;20451;-47
2021/11/13 10:58:30;;;;;;;0.20;0.20;;;;;;;6.17;100.00;100117.69;5020177;28;20809;-47
2021/11/13 11:01:03;;;;;;;0.37;0.37;;;;;;;6.26;100.00;100111.41;5023764;28;20471;-47
2021/11/13 11:03:36;;;;;;;0.30;0.20;;;;;;;6.09;100.00;100108.13;5013352;28;20499;-47
2021/11/13 11:06:03;;;;;;;0.20;0.20;;;;;;;6.01;100.00;100107.34;5026919;28;20537;-47
2021/11/13 11:08:32;;;;;;;0.30;0.20;;;;;;;6.09;100.00;100098.44;5022052;28;20447;-47
2021/11/13 11:11:00;;;;;;;0.30;0.30;;;;;;;6.20;100.00;100096.53;5019775;28;20483;-47
2021/11/13 11:13:47;;;;;;;0.40;0.40;;;;;;;6.47;100.00;100097.91;5024588;28;20995;-47
2021/11/13 11:16:24;;;;;;;0.20;0.20;;;;;;;6.48;100.00;100101.41;5027015;28;20445;-47
2021/11/13 11:18:53;;;;;;;0.20;0.20;;;;;;;6.46;100.00;100096.16;5026540;28;20501;-46
2021/11/13 11:21:36;;;;;;;0.20;0.20;;;;;;;6.49;100.00;100095.25;5020205;28;20451;-47
2021/11/13 11:24:11;;;;;;;0.20;0.20;;;;;;;6.44;100.00;100090.03;5020045;28;20479;-47
2021/11/13 11:26:39;;;;;;;0.30;0.20;;;;;;;6.35;100.00;100087.53;5044936;28;20896;-47
2021/11/13 11:29:06;;;;;;;0.73;0.73;;;;;;;6.40;100.00;100090.09;5028532;28;21005;-47
2021/11/13 11:31:44;;;;;;;2.43;0.83;;;;;;;6.35;100.00;100094.56;5025191;28;21022;-47